• Join FlightAware (Why Join?)
  • Login
  • US Flag 
01:31AM EDT


 

Airport Tracker/Info


-or-


 

Live Flight TrackerFlight Track Log ✈ SWA1729 ✈ 08-Jun-2013 ✈ KPVD - KFLL

Flight Track Log - Related Links

Times and Time Zones

All times are in EDT time to prevent confusion due to time zone crossing. See the SWA1729 flight status page for this flight to view local times or setup timezone preferences in your user account.

Time Position Orientation Groundspeed Altitude Reporting Facility
EDT Latitude Longitude Course Direction KTS MPH feet Rate Location/Type
07:39AM 41.7331 -71.4192 66° East 146 168 1,000  Level Boston Center
07:39AM 41.7514 -71.3631 66° East 194 223 2,300 2,040 Climbing Boston Center
07:41AM 41.6861 -71.3058 147° Southeast 236 272 5,600 2,640 Climbing Boston Center
07:42AM 41.6111 -71.2961 174° South 251 289 8,900 2,700 Climbing Boston Center
07:43AM 41.5339 -71.2864 175° South 292 336 11,000 2,460 Climbing Boston Center
07:44AM 41.4406 -71.3381 203° Southwest 329 379 13,900 2,700 Climbing Boston Center
07:45AM 41.3892 -71.4303 233° Southwest 336 387 16,400 2,640 Climbing Boston Center
07:46AM 41.3278 -71.5417 234° Southwest 363 418 19,200 2,760 Climbing Boston Center
07:47AM 41.2514 -71.6478 226° Southwest 373 429 22,000 2,340 Climbing Boston Center
07:48AM 41.1728 -71.7481 224° Southwest 378 435 23,900 1,800 Climbing Boston Center
07:49AM 41.1025 -71.8397 225° Southwest 391 450 25,600 1,800 Climbing Boston Center
07:50AM 41.0217 -71.9450 225° Southwest 402 463 27,500 1,860 Climbing Boston Center
07:51AM 40.9389 -72.0528 225° Southwest 408 470 29,400 1,920 Climbing Boston Center
07:52AM 40.8558 -72.1547 223° Southwest 415 478 31,400 1,800 Climbing Boston Center
07:53AM 40.7728 -72.2592 224° Southwest 415 478 33,000 1,800 Climbing Boston Center
07:54AM 40.6789 -72.3717 222° Southwest 415 478 35,000 1,800 Climbing Boston Center
07:55AM 40.5936 -72.4675 220° Southwest 415 478 36,700 1,500 Climbing Boston Center
07:56AM 40.5206 -72.5683 226° Southwest 410 472 38,000 600 Climbing Boston Center
07:57AM 40.4433 -72.6664 224° Southwest 398 458 38,000  Level Boston Center
07:58AM 40.3556 -72.7614 220° Southwest 391 450 38,000  Level Boston Center
07:59AM 40.2825 -72.8589 226° Southwest 396 456 38,000  Level Boston Center
08:00AM 40.1647 -73.0125 225° Southwest 383 441 38,000  Level Washington Center
08:01AM 40.0856 -73.1075 223° Southwest 377 434 38,000  Level Washington Center
08:02AM 40.0064 -73.2025 223° Southwest 377 434 38,000  Level Washington Center
08:03AM 39.9289 -73.2944 222° Southwest 383 441 38,000  Level Washington Center
08:04AM 39.8536 -73.3886 224° Southwest 383 441 38,000  Level Washington Center
08:05AM 39.7822 -73.4667 220° Southwest 383 441 38,000  Level Washington Center
08:06AM 39.7044 -73.5606 223° Southwest 383 441 38,000  Level Washington Center
08:07AM 39.6206 -73.6383 216° Southwest 383 441 38,000  Level Washington Center
08:08AM 39.5342 -73.7133 214° Southwest 383 441 38,000  Level Washington Center
08:09AM 39.4497 -73.7881 214° Southwest 378 435 38,000  Level Washington Center
08:10AM 39.3614 -73.8628 213° Southwest 378 435 38,000  Level Washington Center
08:11AM 39.2747 -73.9372 214° Southwest 378 435 38,000  Level Washington Center
08:12AM 39.1883 -74.0117 214° Southwest 378 435 38,000  Level Washington Center
08:13AM 39.1039 -74.0883 215° Southwest 378 435 38,000  Level Washington Center
08:14AM 39.0172 -74.1622 214° Southwest 378 435 38,000  Level Washington Center
08:15AM 38.9306 -74.2361 214° Southwest 378 435 38,000  Level Washington Center
08:16AM 38.8439 -74.3122 214° Southwest 378 435 38,000  Level Washington Center
08:17AM 38.7569 -74.3831 212° Southwest 378 435 38,000  Level Washington Center
08:18AM 38.6742 -74.4536 214° Southwest 372 428 38,000  Level Washington Center
08:19AM 38.5875 -74.5292 214° Southwest 372 428 38,000  Level Washington Center
08:20AM 38.4983 -74.5994 212° Southwest 372 428 38,000  Level Washington Center
08:21AM 38.4050 -74.6539 205° Southwest 372 428 38,000  Level Washington Center
08:22AM 38.3117 -74.7106 205° Southwest 372 428 38,000  Level Washington Center
08:23AM 38.2161 -74.7750 208° Southwest 377 434 38,000  Level Washington Center
08:24AM 38.1228 -74.8317 206° Southwest 382 440 38,000  Level Washington Center
08:25AM 38.0292 -74.8878 205° Southwest 377 434 38,000  Level Washington Center
08:26AM 37.9336 -74.9442 205° Southwest 377 434 38,000  Level Washington Center
08:27AM 37.8400 -74.9975 204° Southwest 377 434 38,000  Level Washington Center
08:28AM 37.7464 -75.0533 205° Southwest 377 434 38,000  Level Washington Center
08:29AM 37.6528 -75.1092 205° Southwest 377 434 38,000  Level Washington Center
08:30AM 37.5592 -75.1647 205° Southwest 377 434 38,000  Level Washington Center
08:31AM 37.4633 -75.2203 205° Southwest 382 440 38,000  Level Washington Center
08:32AM 37.3717 -75.2756 206° Southwest 377 434 38,000  Level Washington Center
08:33AM 37.2739 -75.3308 204° Southwest 377 434 38,000  Level Washington Center
08:34AM 37.1822 -75.3858 206° Southwest 377 434 38,000  Level Washington Center
08:35AM 37.0864 -75.4383 204° Southwest 377 434 38,000  Level Washington Center
08:36AM 36.9906 -75.4956 206° Southwest 382 440 38,000  Level Washington Center
08:37AM 36.8925 -75.5503 204° Southwest 382 440 38,000 120 Level Washington Center
08:38AM 36.7964 -75.6050 205° Southwest 382 440 38,300 600 Climbing Washington Center
08:39AM 36.7006 -75.6619 205° Southwest 382 440 39,200 780 Climbing Washington Center
08:40AM 36.6025 -75.7161 204° Southwest 382 440 39,900 360 Climbing Washington Center
08:41AM 36.5314 -75.8117 227° Southwest 382 440 40,000  Climbing Washington Center
08:42AM 36.5081 -75.9458 258° West 369 425 40,000  Level Washington Center
08:43AM 36.4931 -76.0803 262° West 374 430 40,000  Level Washington Center
08:44AM 36.4819 -76.2247 265° West 386 444 40,000  Level Washington Center
08:45AM 36.4353 -76.3331 242° Southwest 360 414 40,000  Level Washington Center
08:46AM 36.3328 -76.3758 199° South 342 394 40,000  Level Washington Center
08:47AM 36.2325 -76.4236 201° Southwest 362 417 40,000  Level Washington Center
08:48AM 36.1342 -76.4689 200° South 368 423 40,000  Level Washington Center
08:49AM 36.0356 -76.5142 200° South 380 437 40,000  Level Washington Center
08:50AM 35.9372 -76.5567 199° South 380 437 40,000  Level Washington Center
08:51AM 35.8408 -76.6042 202° Southwest 380 437 40,000  Level Washington Center
08:52AM 35.7403 -76.6539 202° Southwest 380 437 40,000  Level Washington Center
08:53AM 35.6439 -76.6989 201° Southwest 380 437 40,000  Level Washington Center
08:54AM 35.5414 -76.7433 199° South 380 437 40,000  Level Washington Center
08:55AM 35.4447 -76.7903 202° Southwest 380 437 40,000  Level Washington Center
08:56AM 35.3547 -76.8322 201° Southwest 380 437 40,000  Level Washington Center
08:57AM 35.2561 -76.8817 202° Southwest 385 443 40,000  Level Washington Center
08:58AM 35.1533 -76.9283 200° South 390 449 40,000  Level Washington Center
08:59AM 35.0442 -76.9822 202° Southwest 390 449 40,000  Level Washington Center
09:00AM 34.9436 -77.0286 201° Southwest 390 449 40,000  Level Washington Center
09:01AM 34.8386 -77.0750 200° South 390 449 40,000  Level Washington Center
09:02AM 34.7400 -77.1236 202° Southwest 390 449 40,000  Level Washington Center
09:03AM 34.6581 -77.1600 200° South 390 449 40,000  Level Washington Center
09:04AM 34.5364 -77.2131 200° South 390 449 40,000  Level Washington Center
09:05AM 34.4336 -77.2589 200° South 390 449 40,000  Level Washington Center
09:08AM 34.1889 -77.3675 200° South 390 449 40,000  Level Jacksonville Center
09:09AM 34.0886 -77.4117 200° South 390 449 40,000  Level Jacksonville Center
09:10AM 33.9883 -77.4578 201° Southwest 385 443 40,000  Level Jacksonville Center
09:11AM 33.8861 -77.5017 200° South 385 443 40,000  Level Jacksonville Center
09:12AM 33.7942 -77.5475 203° Southwest 385 443 40,000  Level Jacksonville Center
09:13AM 33.6936 -77.5883 199° South 385 443 40,000  Level Jacksonville Center
09:14AM 33.5911 -77.6344 201° Southwest 385 443 40,000  Level Jacksonville Center
09:15AM 33.4886 -77.6778 199° South 390 449 40,000  Level Jacksonville Center
09:16AM 33.3864 -77.7261 202° Southwest 390 449 40,000  Level Jacksonville Center
09:17AM 33.2839 -77.7694 199° South 395 455 40,000  Level Jacksonville Center
09:18AM 33.1811 -77.8125 199° South 395 455 40,000  Level Jacksonville Center
09:19AM 33.0767 -77.8606 201° Southwest 401 461 40,000  Level Jacksonville Center
09:20AM 32.9742 -77.9058 200° South 401 461 40,000  Level Jacksonville Center
09:21AM 32.8717 -77.9511 200° South 401 461 40,000  Level Jacksonville Center
09:22AM 32.7669 -77.9964 200° South 401 461 40,000  Level Jacksonville Center
09:23AM 32.6664 -78.0414 201° Southwest 401 461 40,000  Level Jacksonville Center
09:24AM 32.5636 -78.0839 199° South 401 461 40,000  Level Jacksonville Center
09:25AM 32.4589 -78.1264 199° South 401 461 40,000  Level Jacksonville Center
09:26AM 32.3583 -78.1733 202° Southwest 401 461 40,000  Level Jacksonville Center
09:27AM 32.2514 -78.2181 199° South 401 461 40,000  Level Jacksonville Center
09:28AM 32.1406 -78.2706 202° Southwest 401 461 40,000  Level Jacksonville Center
09:29AM 32.0317 -78.3175 200° South 407 468 40,000  Level Jacksonville Center
09:30AM 31.9289 -78.3619 200° South 407 468 40,000  Level Jacksonville Center
09:31AM 31.8242 -78.4086 201° Southwest 407 468 40,000  Level Jacksonville Center
09:32AM 31.7192 -78.4528 200° South 400 460 40,000  Level Jacksonville Center
09:33AM 31.6144 -78.4967 200° South 408 470 40,000  Level Jacksonville Center
09:34AM 31.5094 -78.5406 200° South 399 459 40,000  Level Jacksonville Center
09:35AM 31.4044 -78.5869 201° Southwest 407 468 40,000  Level Jacksonville Center
09:36AM 31.2994 -78.6306 200° South 407 468 40,000  Level Jacksonville Center
09:37AM 31.1944 -78.6742 200° South 401 461 40,000  Level Jacksonville Center
09:38AM 31.0894 -78.7178 200° South 405 466 40,000  Level Jacksonville Center
09:39AM 30.9908 -78.7633 202° Southwest 412 474 40,000  Level Jacksonville Center
09:41AM 30.7539 -78.8606 199° South 408 470 40,000  Level Miami Center
09:42AM 30.6450 -78.9019 198° South 421 484 40,000  Level Miami Center
09:43AM 30.5339 -78.9478 200° South 414 476 40,000  Level Miami Center
09:44AM 30.4250 -78.9889 198° South 412 474 40,000  Level Miami Center
09:45AM 30.3181 -79.0231 195° South 405 466 40,000  Level Miami Center
09:46AM 30.2094 -79.0494 192° South 412 474 40,000  Level Miami Center
09:47AM 30.0964 -79.0808 194° South 412 474 40,000  Level Miami Center
09:48AM 29.9978 -79.1100 194° South 417 480 40,000  Level Miami Center
09:49AM 29.8889 -79.1436 195° South 411 473 40,000  Level Miami Center
09:50AM 29.7717 -79.1672 190° South 411 473 40,000  Level Miami Center
09:51AM 29.6647 -79.2033 196° South 416 479 40,000  Level Miami Center
09:52AM 29.5475 -79.2294 191° South 421 484 40,000  Level Miami Center
09:53AM 29.4344 -79.2556 191° South 420 483 40,000  Level Miami Center
09:54AM 29.3172 -79.2792 190° South 420 483 40,000  Level Miami Center
09:55AM 29.2000 -79.3075 192° South 415 478 40,000  Level Miami Center
09:56AM 29.0889 -79.3381 194° South 420 483 40,000  Level Miami Center
09:57AM 28.9736 -79.3664 192° South 420 483 40,000  Level Miami Center
09:58AM 28.8583 -79.3969 193° South 420 483 40,000  Level Miami Center
09:59AM 28.7450 -79.4275 193° South 420 483 40,000  Level Miami Center
10:00AM 28.6278 -79.4533 191° South 425 489 40,000  Level Miami Center
10:01AM 28.5103 -79.4836 193° South 430 495 40,000  Level Miami Center
10:02AM 28.3950 -79.5092 191° South 430 495 40,000  Level Miami Center
10:03AM 28.2797 -79.5394 193° South 430 495 40,000  Level Miami Center
10:04AM 28.1625 -79.5672 192° South 430 495 40,000 -600 Level Miami Center
10:05AM 28.0469 -79.5953 192° South 430 495 38,900 -1,860 Descending Miami Center
10:06AM 27.9297 -79.6228 192° South 430 495 36,300 -2,760 Descending Miami Center
10:07AM 27.8081 -79.6528 192° South 422 486 33,400 -2,520 Descending Miami Center
10:08AM 27.6947 -79.6806 192° South 417 480 31,300 -2,100 Descending Miami Center
10:09AM 27.5856 -79.7083 193° South 411 473 29,200 -2,100 Descending Miami Center
10:10AM 27.4894 -79.7083 180° South 378 435 27,200 -2,040 Descending Miami Center
10:11AM 27.4075 -79.6289 139° Southeast 368 423 25,200 -2,220 Descending Miami Center
10:12AM 27.3194 -79.5333 136° Southeast 393 452 22,800 -2,220 Descending Miami Center
10:13AM 27.2481 -79.4500 134° Southeast 388 447 20,800 -2,040 Descending Miami Center
10:14AM 27.1719 -79.3711 137° Southeast 378 435 18,800 -1,920 Descending Miami Center
10:15AM 27.1064 -79.2997 136° Southeast 371 427 17,000 -960 Descending Miami Center
10:16AM 27.0347 -79.2214 136° Southeast 351 404 16,900 -60 Descending Miami Center
10:17AM 26.9628 -79.1406 135° Southeast 351 404 16,900  Level Miami Center
10:18AM 26.8889 -79.0600 136° Southeast 351 404 16,900  Level Miami Center
10:19AM 26.8231 -78.9867 135° Southeast 351 404 16,900  Level Miami Center
10:20AM 26.7450 -78.9039 137° Southeast 356 410 16,900  Level Miami Center
10:21AM 26.6772 -78.8258 134° Southeast 356 410 16,900  Level Miami Center
10:22AM 26.6028 -78.7481 137° Southeast 361 415 16,900  Level Miami Center
10:23AM 26.5133 -78.7350 173° South 350 403 16,900 -600 Level Miami Center
10:24AM 26.4311 -78.7917 212° Southwest 299 344 15,700 -1,680 Descending Miami Center
10:25AM 26.3467 -78.8458 210° Southwest 324 373 13,600 -2,100 Descending Miami Center
10:26AM 26.2728 -78.9025 215° Southwest 324 373 11,500 -1,860 Descending Miami Center
10:27AM 26.1989 -78.9661 218° Southwest 335 386 9,900 -840 Descending Miami Center
10:28AM 26.1558 -79.0442 238° Southwest 311 358 9,900 -540 Level Miami Center
10:29AM 26.1192 -79.1244 243° Southwest 306 352 8,900 -1,260 Descending Miami Center
10:30AM 26.0761 -79.2000 238° Southwest 306 352 7,400 -1,500 Descending Miami Center
10:31AM 26.0353 -79.2778 240° Southwest 300 345 6,000 -720 Descending Miami Center
10:32AM 25.9964 -79.3486 239° Southwest 289 333 6,000  Level Miami Center
10:33AM 25.9619 -79.4128 239° Southwest 284 327 6,000  Level Miami Center
10:33AM 25.9489 -79.4447 246° West 270 311 6,000  Level Miami Center
10:34AM 25.9208 -79.4950 238° Southwest 279 321 6,000  Level Miami Center
10:35AM 25.8797 -79.5703 239° Southwest 270 311 6,000  Level Miami Center
10:36AM 25.8533 -79.6411 248° West 277 319 6,000  Level Miami Center
10:37AM 25.8853 -79.7181 295° West 275 316 6,000  Level Miami Center
10:38AM 25.9153 -79.7906 295° West 277 319 6,000  Level Miami Center
10:39AM 25.9492 -79.8675 296° West 275 316 6,000 -60 Level Miami Center
10:40AM 25.9975 -79.9450 305° West 273 314 5,900 -60 Descending Miami Center
10:41AM 26.0442 -80.0133 307° West 278 320 5,900  Level Miami Center
10:42AM 26.0864 -80.0883 302° West 279 321 6,000 -120 Climbing Miami Center
10:43AM 26.1250 -80.1403 310° West 233 268 5,700 -780 Descending Miami Center
10:44AM 26.1483 -80.2150 289° West 222 255 4,500 -960 Descending Miami Center
10:45AM 26.1489 -80.2844 271° West 220 253 3,700 -1,020 Descending Miami Center
10:46AM 26.1269 -80.3325 243° Southwest 205 236 2,500 -960 Descending Miami Center
10:47AM 26.0900 -80.2944 137° Southeast 183 211 1,800 -600 Descending Miami Center
10:48AM 26.0744 -80.2478 110° East 150 173 1,300 -600 Descending Miami Center
10:49AM 26.0756 -80.2014 88° East 136 157 600 -720 Descending Miami Center
10:51AM 26.0667 -80.1500 77° East  Level FlightAware Approximate
10:58AM 26.0726 -80.1527 77° East  Level Estimated